sensor_id;sensor_type;location;lat;lon;timestamp;temperature;humidity
10247;DHT22;5168;47.854;7.944;2023-03-30T00:00:56;10.20;99.90
10247;DHT22;5168;47.854;7.944;2023-03-30T00:03:22;10.30;99.90
10247;DHT22;5168;47.854;7.944;2023-03-30T00:05:49;10.30;99.90
10247;DHT22;5168;47.854;7.944;2023-03-30T00:08:16;11.00;99.90
10247;DHT22;5168;47.854;7.944;2023-03-30T00:10:44;10.80;99.90
10247;DHT22;5168;47.854;7.944;2023-03-30T00:13:11;9.90;99.90
10247;DHT22;5168;47.854;7.944;2023-03-30T00:15:37;10.50;99.90
10247;DHT22;5168;47.854;7.944;2023-03-30T00:18:02;11.10;99.90
10247;DHT22;5168;47.854;7.944;2023-03-30T00:20:28;10.30;99.90
10247;DHT22;5168;47.854;7.944;2023-03-30T00:22:57;11.00;99.90
10247;DHT22;5168;47.854;7.944;2023-03-30T00:25:23;10.50;99.90
10247;DHT22;5168;47.854;7.944;2023-03-30T00:27:49;10.60;99.90
10247;DHT22;5168;47.854;7.944;2023-03-30T00:30:15;10.70;99.90
10247;DHT22;5168;47.854;7.944;2023-03-30T00:32:42;10.60;99.90
10247;DHT22;5168;47.854;7.944;2023-03-30T00:35:09;10.80;99.90
10247;DHT22;5168;47.854;7.944;2023-03-30T00:37:35;10.90;99.90
10247;DHT22;5168;47.854;7.944;2023-03-30T00:40:03;11.30;99.90
10247;DHT22;5168;47.854;7.944;2023-03-30T00:42:28;11.00;99.90
10247;DHT22;5168;47.854;7.944;2023-03-30T00:45:26;11.20;99.90
10247;DHT22;5168;47.854;7.944;2023-03-30T00:48:19;11.30;99.90
10247;DHT22;5168;47.854;7.944;2023-03-30T00:51:01;11.30;99.90
10247;DHT22;5168;47.854;7.944;2023-03-30T00:53:43;11.20;99.90
10247;DHT22;5168;47.854;7.944;2023-03-30T00:56:13;11.00;99.90
10247;DHT22;5168;47.854;7.944;2023-03-30T00:58:41;11.10;99.90
10247;DHT22;5168;47.854;7.944;2023-03-30T01:01:10;11.30;99.90
10247;DHT22;5168;47.854;7.944;2023-03-30T01:03:42;11.20;99.90
10247;DHT22;5168;47.854;7.944;2023-03-30T01:06:10;10.90;99.90
10247;DHT22;5168;47.854;7.944;2023-03-30T01:08:37;10.80;99.90
10247;DHT22;5168;47.854;7.944;2023-03-30T01:11:04;11.20;99.90
10247;DHT22;5168;47.854;7.944;2023-03-30T01:13:33;10.50;99.90
10247;DHT22;5168;47.854;7.944;2023-03-30T01:26:58;10.50;99.90
10247;DHT22;5168;47.854;7.944;2023-03-30T01:38:07;9.60;99.90
10247;DHT22;5168;47.854;7.944;2023-03-30T01:40:47;10.00;99.90
10247;DHT22;5168;47.854;7.944;2023-03-30T01:43:23;9.10;99.90
10247;DHT22;5168;47.854;7.944;2023-03-30T01:46:03;9.50;99.90
10247;DHT22;5168;47.854;7.944;2023-03-30T01:48:44;9.60;99.90
10247;DHT22;5168;47.854;7.944;2023-03-30T01:51:34;9.80;99.90
10247;DHT22;5168;47.854;7.944;2023-03-30T01:54:08;9.50;99.90
10247;DHT22;5168;47.854;7.944;2023-03-30T01:56:46;9.50;99.90
10247;DHT22;5168;47.854;7.944;2023-03-30T01:59:22;9.40;99.90
10247;DHT22;5168;47.854;7.944;2023-03-30T02:01:50;9.40;99.90
10247;DHT22;5168;47.854;7.944;2023-03-30T02:04:20;9.30;99.90
10247;DHT22;5168;47.854;7.944;2023-03-30T02:06:51;9.50;99.90
10247;DHT22;5168;47.854;7.944;2023-03-30T02:09:19;9.50;99.90
10247;DHT22;5168;47.854;7.944;2023-03-30T02:11:49;9.30;99.90
10247;DHT22;5168;47.854;7.944;2023-03-30T02:14:19;9.50;99.90
10247;DHT22;5168;47.854;7.944;2023-03-30T02:16:49;9.50;99.90
10247;DHT22;5168;47.854;7.944;2023-03-30T02:19:14;9.00;99.90
10247;DHT22;5168;47.854;7.944;2023-03-30T02:21:41;9.10;99.90
10247;DHT22;5168;47.854;7.944;2023-03-30T02:24:17;9.00;99.90
10247;DHT22;5168;47.854;7.944;2023-03-30T02:26:45;9.30;99.90
10247;DHT22;5168;47.854;7.944;2023-03-30T02:29:12;9.20;99.90
10247;DHT22;5168;47.854;7.944;2023-03-30T02:31:38;9.20;99.90
10247;DHT22;5168;47.854;7.944;2023-03-30T02:44:53;9.20;99.90
10247;DHT22;5168;47.854;7.944;2023-03-30T02:47:36;9.00;99.90
10247;DHT22;5168;47.854;7.944;2023-03-30T02:50:21;8.90;99.90
10247;DHT22;5168;47.854;7.944;2023-03-30T02:52:58;9.40;99.90
10247;DHT22;5168;47.854;7.944;2023-03-30T03:03:23;9.50;99.90
10247;DHT22;5168;47.854;7.944;2023-03-30T03:05:51;8.90;99.90
10247;DHT22;5168;47.854;7.944;2023-03-30T03:08:22;9.40;99.90
10247;DHT22;5168;47.854;7.944;2023-03-30T03:13:14;9.00;99.90
10247;DHT22;5168;47.854;7.944;2023-03-30T03:18:10;9.90;99.90
10247;DHT22;5168;47.854;7.944;2023-03-30T03:20:37;9.10;99.90
10247;DHT22;5168;47.854;7.944;2023-03-30T03:23:03;9.10;99.90
10247;DHT22;5168;47.854;7.944;2023-03-30T03:27:55;8.80;99.90
10247;DHT22;5168;47.854;7.944;2023-03-30T03:30:22;9.60;99.90
10247;DHT22;5168;47.854;7.944;2023-03-30T03:32:49;9.60;99.90
10247;DHT22;5168;47.854;7.944;2023-03-30T03:35:15;9.40;99.90
10247;DHT22;5168;47.854;7.944;2023-03-30T03:47:27;10.00;99.90
10247;DHT22;5168;47.854;7.944;2023-03-30T03:49:53;9.60;99.90
10247;DHT22;5168;47.854;7.944;2023-03-30T03:52:18;10.20;99.90
10247;DHT22;5168;47.854;7.944;2023-03-30T03:57:10;10.30;99.90
10247;DHT22;5168;47.854;7.944;2023-03-30T03:59:35;9.90;99.90
10247;DHT22;5168;47.854;7.944;2023-03-30T04:02:01;9.80;99.90
10247;DHT22;5168;47.854;7.944;2023-03-30T04:09:18;9.90;99.90
10247;DHT22;5168;47.854;7.944;2023-03-30T04:11:45;9.70;99.90
10247;DHT22;5168;47.854;7.944;2023-03-30T04:19:03;9.20;99.90
10247;DHT22;5168;47.854;7.944;2023-03-30T04:21:28;9.60;99.90
10247;DHT22;5168;47.854;7.944;2023-03-30T04:23:54;9.20;99.90
10247;DHT22;5168;47.854;7.944;2023-03-30T04:26:20;9.50;99.90
10247;DHT22;5168;47.854;7.944;2023-03-30T04:28:46;9.60;99.90
10247;DHT22;5168;47.854;7.944;2023-03-30T04:33:39;9.50;99.90
10247;DHT22;5168;47.854;7.944;2023-03-30T04:36:15;10.00;99.90
10247;DHT22;5168;47.854;7.944;2023-03-30T04:38:44;9.50;99.90
10247;DHT22;5168;47.854;7.944;2023-03-30T04:41:10;9.70;99.90
10247;DHT22;5168;47.854;7.944;2023-03-30T04:50:56;9.50;99.90
10247;DHT22;5168;47.854;7.944;2023-03-30T04:55:49;9.60;99.90
10247;DHT22;5168;47.854;7.944;2023-03-30T04:58:16;9.60;99.90
10247;DHT22;5168;47.854;7.944;2023-03-30T05:00:42;9.70;99.90
10247;DHT22;5168;47.854;7.944;2023-03-30T05:12:55;9.50;99.90
10247;DHT22;5168;47.854;7.944;2023-03-30T05:15:21;9.30;99.90
10247;DHT22;5168;47.854;7.944;2023-03-30T05:17:46;9.20;99.90
10247;DHT22;5168;47.854;7.944;2023-03-30T05:22:39;9.20;99.90
10247;DHT22;5168;47.854;7.944;2023-03-30T05:25:05;9.50;99.90
10247;DHT22;5168;47.854;7.944;2023-03-30T05:27:31;9.60;99.90
10247;DHT22;5168;47.854;7.944;2023-03-30T05:29:57;10.00;99.90
10247;DHT22;5168;47.854;7.944;2023-03-30T05:32:23;9.30;99.90
10247;DHT22;5168;47.854;7.944;2023-03-30T05:34:48;9.90;99.90
10247;DHT22;5168;47.854;7.944;2023-03-30T05:37:14;9.50;99.90
10247;DHT22;5168;47.854;7.944;2023-03-30T05:39:40;9.30;99.90
10247;DHT22;5168;47.854;7.944;2023-03-30T05:42:05;9.40;99.90
10247;DHT22;5168;47.854;7.944;2023-03-30T05:44:32;9.60;99.90
10247;DHT22;5168;47.854;7.944;2023-03-30T05:54:16;10.10;99.90
10247;DHT22;5168;47.854;7.944;2023-03-30T05:59:08;10.00;99.90
10247;DHT22;5168;47.854;7.944;2023-03-30T06:01:35;10.00;99.90
10247;DHT22;5168;47.854;7.944;2023-03-30T06:04:00;10.80;99.90
10247;DHT22;5168;47.854;7.944;2023-03-30T06:11:18;10.90;99.90
10247;DHT22;5168;47.854;7.944;2023-03-30T06:13:44;10.90;99.90
10247;DHT22;5168;47.854;7.944;2023-03-30T06:16:09;10.80;99.90
10247;DHT22;5168;47.854;7.944;2023-03-30T06:21:03;11.00;99.90
10247;DHT22;5168;47.854;7.944;2023-03-30T06:28:24;11.00;99.90
10247;DHT22;5168;47.854;7.944;2023-03-30T06:33:16;11.50;99.90
10247;DHT22;5168;47.854;7.944;2023-03-30T06:35:50;11.90;99.90
10247;DHT22;5168;47.854;7.944;2023-03-30T06:38:17;11.10;99.90
10247;DHT22;5168;47.854;7.944;2023-03-30T06:40:43;11.60;99.90
10247;DHT22;5168;47.854;7.944;2023-03-30T06:43:21;11.20;99.90
10247;DHT22;5168;47.854;7.944;2023-03-30T06:45:51;11.10;99.90
10247;DHT22;5168;47.854;7.944;2023-03-30T06:48:18;11.60;99.90
10247;DHT22;5168;47.854;7.944;2023-03-30T06:50:45;11.10;99.90
10247;DHT22;5168;47.854;7.944;2023-03-30T06:53:11;11.00;99.90
10247;DHT22;5168;47.854;7.944;2023-03-30T07:00:28;10.60;99.90
10247;DHT22;5168;47.854;7.944;2023-03-30T07:02:54;11.20;99.90
10247;DHT22;5168;47.854;7.944;2023-03-30T07:05:21;10.60;99.90
10247;DHT22;5168;47.854;7.944;2023-03-30T07:07:50;11.10;99.90
10247;DHT22;5168;47.854;7.944;2023-03-30T07:10:18;10.70;99.90
10247;DHT22;5168;47.854;7.944;2023-03-30T07:12:44;11.00;99.90
10247;DHT22;5168;47.854;7.944;2023-03-30T07:15:10;11.10;99.90
10247;DHT22;5168;47.854;7.944;2023-03-30T07:17:36;10.90;99.90
10247;DHT22;5168;47.854;7.944;2023-03-30T07:20:03;11.40;99.90
10247;DHT22;5168;47.854;7.944;2023-03-30T07:24:55;11.40;99.90
10247;DHT22;5168;47.854;7.944;2023-03-30T07:27:21;10.70;99.90
10247;DHT22;5168;47.854;7.944;2023-03-30T07:29:49;11.10;99.90
10247;DHT22;5168;47.854;7.944;2023-03-30T07:32:15;11.00;99.90
10247;DHT22;5168;47.854;7.944;2023-03-30T07:34:42;11.50;99.90
10247;DHT22;5168;47.854;7.944;2023-03-30T07:37:07;11.00;99.90
10247;DHT22;5168;47.854;7.944;2023-03-30T07:39:33;11.20;99.90
10247;DHT22;5168;47.854;7.944;2023-03-30T07:46:54;10.90;99.90
10247;DHT22;5168;47.854;7.944;2023-03-30T07:51:46;11.00;99.90
10247;DHT22;5168;47.854;7.944;2023-03-30T07:54:12;10.60;99.90
10247;DHT22;5168;47.854;7.944;2023-03-30T07:56:38;10.60;99.90
10247;DHT22;5168;47.854;7.944;2023-03-30T07:59:04;10.50;99.90
10247;DHT22;5168;47.854;7.944;2023-03-30T08:01:30;10.90;99.90
10247;DHT22;5168;47.854;7.944;2023-03-30T08:03:58;10.20;99.90
10247;DHT22;5168;47.854;7.944;2023-03-30T08:08:50;10.50;99.90
10247;DHT22;5168;47.854;7.944;2023-03-30T08:11:17;10.60;99.90
10247;DHT22;5168;47.854;7.944;2023-03-30T08:18:35;10.10;99.90
10247;DHT22;5168;47.854;7.944;2023-03-30T08:21:02;9.90;99.90
10247;DHT22;5168;47.854;7.944;2023-03-30T08:23:27;10.60;99.90
10247;DHT22;5168;47.854;7.944;2023-03-30T08:25:57;9.90;99.90
10247;DHT22;5168;47.854;7.944;2023-03-30T08:30:49;10.20;99.90
10247;DHT22;5168;47.854;7.944;2023-03-30T08:33:15;10.10;99.90
10247;DHT22;5168;47.854;7.944;2023-03-30T08:35:44;9.90;99.90
10247;DHT22;5168;47.854;7.944;2023-03-30T08:38:11;9.90;99.90
10247;DHT22;5168;47.854;7.944;2023-03-30T08:40:40;9.50;99.90
10247;DHT22;5168;47.854;7.944;2023-03-30T08:43:12;9.80;99.90
10247;DHT22;5168;47.854;7.944;2023-03-30T08:45:43;9.70;99.90
10247;DHT22;5168;47.854;7.944;2023-03-30T08:48:20;9.30;99.90
10247;DHT22;5168;47.854;7.944;2023-03-30T08:59:07;9.30;99.90
10247;DHT22;5168;47.854;7.944;2023-03-30T09:01:54;9.00;99.90
10247;DHT22;5168;47.854;7.944;2023-03-30T09:04:33;9.20;99.90
10247;DHT22;5168;47.854;7.944;2023-03-30T09:07:07;8.90;99.90
10247;DHT22;5168;47.854;7.944;2023-03-30T09:09:42;9.20;99.90
10247;DHT22;5168;47.854;7.944;2023-03-30T09:14:49;9.40;99.90
10247;DHT22;5168;47.854;7.944;2023-03-30T09:17:21;9.10;99.90
10247;DHT22;5168;47.854;7.944;2023-03-30T09:20:12;8.60;99.90
10247;DHT22;5168;47.854;7.944;2023-03-30T09:22:42;8.70;99.90
10247;DHT22;5168;47.854;7.944;2023-03-30T09:30:19;8.70;99.90
10247;DHT22;5168;47.854;7.944;2023-03-30T09:32:59;8.10;99.90
10247;DHT22;5168;47.854;7.944;2023-03-30T09:36:02;8.60;99.90
10247;DHT22;5168;47.854;7.944;2023-03-30T09:41:16;8.40;99.90
10247;DHT22;5168;47.854;7.944;2023-03-30T09:43:44;8.50;99.90
10247;DHT22;5168;47.854;7.944;2023-03-30T09:46:12;8.60;99.90
10247;DHT22;5168;47.854;7.944;2023-03-30T09:48:46;8.50;99.90
10247;DHT22;5168;47.854;7.944;2023-03-30T09:51:26;8.60;99.90
10247;DHT22;5168;47.854;7.944;2023-03-30T09:54:02;8.10;99.90
10247;DHT22;5168;47.854;7.944;2023-03-30T09:56:41;8.40;99.90
10247;DHT22;5168;47.854;7.944;2023-03-30T09:59:33;8.50;99.90
10247;DHT22;5168;47.854;7.944;2023-03-30T10:07:26;8.70;99.90
10247;DHT22;5168;47.854;7.944;2023-03-30T10:12:18;8.80;99.90
10247;DHT22;5168;47.854;7.944;2023-03-30T10:14:44;8.20;99.90
10247;DHT22;5168;47.854;7.944;2023-03-30T10:17:19;8.70;99.90
10247;DHT22;5168;47.854;7.944;2023-03-30T10:19:45;8.80;99.90
10247;DHT22;5168;47.854;7.944;2023-03-30T10:22:19;8.70;99.90
10247;DHT22;5168;47.854;7.944;2023-03-30T10:24:52;8.80;99.90
10247;DHT22;5168;47.854;7.944;2023-03-30T10:27:31;8.60;99.90
10247;DHT22;5168;47.854;7.944;2023-03-30T10:30:07;8.70;99.90
10247;DHT22;5168;47.854;7.944;2023-03-30T10:32:34;8.90;99.90
10247;DHT22;5168;47.854;7.944;2023-03-30T10:35:00;9.00;99.90
10247;DHT22;5168;47.854;7.944;2023-03-30T10:37:34;8.50;99.90
10247;DHT22;5168;47.854;7.944;2023-03-30T10:40:08;9.00;99.90
10247;DHT22;5168;47.854;7.944;2023-03-30T10:45:04;8.80;99.90
10247;DHT22;5168;47.854;7.944;2023-03-30T10:48:04;9.10;99.90
10247;DHT22;5168;47.854;7.944;2023-03-30T10:56:50;8.70;99.90
10247;DHT22;5168;47.854;7.944;2023-03-30T10:59:43;8.40;99.90
10247;DHT22;5168;47.854;7.944;2023-03-30T11:07:39;8.60;99.90
10247;DHT22;5168;47.854;7.944;2023-03-30T11:10:19;8.90;99.90
10247;DHT22;5168;47.854;7.944;2023-03-30T11:12:50;8.20;99.90
10247;DHT22;5168;47.854;7.944;2023-03-30T11:15:25;8.30;99.90
10247;DHT22;5168;47.854;7.944;2023-03-30T11:21:04;8.20;99.90
10247;DHT22;5168;47.854;7.944;2023-03-30T11:23:44;8.10;99.90
10247;DHT22;5168;47.854;7.944;2023-03-30T11:26:38;8.50;99.90
10247;DHT22;5168;47.854;7.944;2023-03-30T11:29:19;8.20;99.90
10247;DHT22;5168;47.854;7.944;2023-03-30T11:34:49;8.40;99.90
10247;DHT22;5168;47.854;7.944;2023-03-30T11:37:24;8.50;99.90
10247;DHT22;5168;47.854;7.944;2023-03-30T11:40:16;8.30;99.90
10247;DHT22;5168;47.854;7.944;2023-03-30T11:50:51;8.50;99.90
10247;DHT22;5168;47.854;7.944;2023-03-30T11:53:39;8.60;99.90
10247;DHT22;5168;47.854;7.944;2023-03-30T11:56:19;8.30;99.90
10247;DHT22;5168;47.854;7.944;2023-03-30T12:02:36;8.20;99.90
10247;DHT22;5168;47.854;7.944;2023-03-30T12:04:33;8.50;99.90
10247;DHT22;5168;47.854;7.944;2023-03-30T12:07:04;8.10;99.90
10247;DHT22;5168;47.854;7.944;2023-03-30T12:09:53;8.40;99.90
10247;DHT22;5168;47.854;7.944;2023-03-30T12:12:39;8.50;99.90
10247;DHT22;5168;47.854;7.944;2023-03-30T12:23:28;8.70;99.90
10247;DHT22;5168;47.854;7.944;2023-03-30T12:26:22;8.60;99.90
10247;DHT22;5168;47.854;7.944;2023-03-30T12:28:56;8.80;99.90
10247;DHT22;5168;47.854;7.944;2023-03-30T12:31:47;8.10;99.90
10247;DHT22;5168;47.854;7.944;2023-03-30T12:34:13;8.00;99.90
10247;DHT22;5168;47.854;7.944;2023-03-30T12:36:40;8.20;99.90
10247;DHT22;5168;47.854;7.944;2023-03-30T12:39:16;8.20;99.90
10247;DHT22;5168;47.854;7.944;2023-03-30T12:41:47;8.20;99.90
10247;DHT22;5168;47.854;7.944;2023-03-30T12:52:35;9.10;99.90
10247;DHT22;5168;47.854;7.944;2023-03-30T12:58:07;8.40;99.90
10247;DHT22;5168;47.854;7.944;2023-03-30T13:05:55;9.40;99.90
10247;DHT22;5168;47.854;7.944;2023-03-30T13:08:39;9.30;99.90
10247;DHT22;5168;47.854;7.944;2023-03-30T13:11:13;9.80;99.90
10247;DHT22;5168;47.854;7.944;2023-03-30T13:13:50;10.90;99.90
10247;DHT22;5168;47.854;7.944;2023-03-30T13:25:01;12.50;99.90
10247;DHT22;5168;47.854;7.944;2023-03-30T13:27:34;13.20;99.90
10247;DHT22;5168;47.854;7.944;2023-03-30T13:33:13;12.20;99.90
10247;DHT22;5168;47.854;7.944;2023-03-30T13:35:53;12.00;99.90
10247;DHT22;5168;47.854;7.944;2023-03-30T13:51:54;10.90;99.90
10247;DHT22;5168;47.854;7.944;2023-03-30T13:54:26;10.70;99.90
10247;DHT22;5168;47.854;7.944;2023-03-30T13:59:35;10.40;99.90
10247;DHT22;5168;47.854;7.944;2023-03-30T14:02:02;10.20;99.90
10247;DHT22;5168;47.854;7.944;2023-03-30T14:04:33;10.30;99.90
10247;DHT22;5168;47.854;7.944;2023-03-30T14:07:14;10.10;99.90
10247;DHT22;5168;47.854;7.944;2023-03-30T14:09:41;10.30;99.90
10247;DHT22;5168;47.854;7.944;2023-03-30T14:12:07;10.00;99.90
10247;DHT22;5168;47.854;7.944;2023-03-30T14:17:00;9.90;99.90
10247;DHT22;5168;47.854;7.944;2023-03-30T14:22:10;10.00;99.90
10247;DHT22;5168;47.854;7.944;2023-03-30T14:24:38;10.30;99.90
10247;DHT22;5168;47.854;7.944;2023-03-30T14:27:11;10.40;99.90
10247;DHT22;5168;47.854;7.944;2023-03-30T14:29:48;10.50;99.90
10247;DHT22;5168;47.854;7.944;2023-03-30T14:32:16;10.40;99.90
10247;DHT22;5168;47.854;7.944;2023-03-30T14:34:51;10.30;99.90
10247;DHT22;5168;47.854;7.944;2023-03-30T14:37:19;10.40;99.90
10247;DHT22;5168;47.854;7.944;2023-03-30T14:39:51;10.40;99.90
10247;DHT22;5168;47.854;7.944;2023-03-30T14:42:20;10.00;99.90
10247;DHT22;5168;47.854;7.944;2023-03-30T14:44:47;10.40;99.90
10247;DHT22;5168;47.854;7.944;2023-03-30T14:47:17;10.00;99.90
10247;DHT22;5168;47.854;7.944;2023-03-30T14:49:43;10.10;99.90
10247;DHT22;5168;47.854;7.944;2023-03-30T14:52:21;10.30;99.90
10247;DHT22;5168;47.854;7.944;2023-03-30T14:54:49;10.20;99.90
10247;DHT22;5168;47.854;7.944;2023-03-30T14:57:18;10.10;99.90
10247;DHT22;5168;47.854;7.944;2023-03-30T14:59:47;9.70;99.90
10247;DHT22;5168;47.854;7.944;2023-03-30T15:02:35;10.60;99.90
10247;DHT22;5168;47.854;7.944;2023-03-30T15:05:02;10.30;99.90
10247;DHT22;5168;47.854;7.944;2023-03-30T15:07:30;10.70;99.90
10247;DHT22;5168;47.854;7.944;2023-03-30T15:09:58;10.80;99.90
10247;DHT22;5168;47.854;7.944;2023-03-30T15:14:52;10.30;99.90
10247;DHT22;5168;47.854;7.944;2023-03-30T15:17:24;10.20;99.90
10247;DHT22;5168;47.854;7.944;2023-03-30T15:19:51;9.70;99.90
10247;DHT22;5168;47.854;7.944;2023-03-30T15:22:36;9.80;99.90
10247;DHT22;5168;47.854;7.944;2023-03-30T15:25:05;9.50;99.90
10247;DHT22;5168;47.854;7.944;2023-03-30T15:27:33;10.00;99.90
10247;DHT22;5168;47.854;7.944;2023-03-30T15:30:00;10.00;99.90
10247;DHT22;5168;47.854;7.944;2023-03-30T15:32:34;9.60;99.90
10247;DHT22;5168;47.854;7.944;2023-03-30T15:40:46;9.50;99.90
10247;DHT22;5168;47.854;7.944;2023-03-30T15:43:20;10.00;99.90
10247;DHT22;5168;47.854;7.944;2023-03-30T15:45:50;9.30;99.90
10247;DHT22;5168;47.854;7.944;2023-03-30T15:48:38;9.60;99.90
10247;DHT22;5168;47.854;7.944;2023-03-30T15:51:10;9.60;99.90
10247;DHT22;5168;47.854;7.944;2023-03-30T15:53:41;9.40;99.90
10247;DHT22;5168;47.854;7.944;2023-03-30T15:56:16;9.30;99.90
10247;DHT22;5168;47.854;7.944;2023-03-30T15:58:42;9.10;99.90
10247;DHT22;5168;47.854;7.944;2023-03-30T16:01:12;9.40;99.90
10247;DHT22;5168;47.854;7.944;2023-03-30T16:03:48;9.40;99.90
10247;DHT22;5168;47.854;7.944;2023-03-30T16:06:15;9.40;99.90
10247;DHT22;5168;47.854;7.944;2023-03-30T16:08:41;9.60;99.90
10247;DHT22;5168;47.854;7.944;2023-03-30T16:11:10;9.40;99.90
10247;DHT22;5168;47.854;7.944;2023-03-30T16:13:40;9.20;99.90
10247;DHT22;5168;47.854;7.944;2023-03-30T16:16:06;8.60;99.90
10247;DHT22;5168;47.854;7.944;2023-03-30T16:18:32;9.00;99.90
10247;DHT22;5168;47.854;7.944;2023-03-30T16:23:23;9.20;99.90
10247;DHT22;5168;47.854;7.944;2023-03-30T16:28:16;8.80;99.90
10247;DHT22;5168;47.854;7.944;2023-03-30T16:30:44;9.00;99.90
10247;DHT22;5168;47.854;7.944;2023-03-30T16:38:02;9.00;99.90
10247;DHT22;5168;47.854;7.944;2023-03-30T16:40:32;8.50;99.90
10247;DHT22;5168;47.854;7.944;2023-03-30T16:42:59;8.40;99.90
10247;DHT22;5168;47.854;7.944;2023-03-30T16:45:25;8.70;99.90
10247;DHT22;5168;47.854;7.944;2023-03-30T16:50:21;9.20;99.90
10247;DHT22;5168;47.854;7.944;2023-03-30T16:52:48;9.30;99.90
10247;DHT22;5168;47.854;7.944;2023-03-30T16:55:14;8.50;99.90
10247;DHT22;5168;47.854;7.944;2023-03-30T16:57:40;8.80;99.90
10247;DHT22;5168;47.854;7.944;2023-03-30T17:00:22;9.30;99.90
10247;DHT22;5168;47.854;7.944;2023-03-30T17:02:48;9.20;99.90
10247;DHT22;5168;47.854;7.944;2023-03-30T17:05:14;8.90;99.90
10247;DHT22;5168;47.854;7.944;2023-03-30T17:10:14;8.60;99.90
10247;DHT22;5168;47.854;7.944;2023-03-30T17:15:07;8.90;99.90
10247;DHT22;5168;47.854;7.944;2023-03-30T17:17:32;8.70;99.90
10247;DHT22;5168;47.854;7.944;2023-03-30T17:22:45;8.90;99.90
10247;DHT22;5168;47.854;7.944;2023-03-30T17:25:10;8.90;99.90
10247;DHT22;5168;47.854;7.944;2023-03-30T17:30:03;8.90;99.90
10247;DHT22;5168;47.854;7.944;2023-03-30T17:32:29;9.40;99.90
10247;DHT22;5168;47.854;7.944;2023-03-30T17:34:55;8.60;99.90
10247;DHT22;5168;47.854;7.944;2023-03-30T17:42:12;8.50;99.90
10247;DHT22;5168;47.854;7.944;2023-03-30T17:44:38;9.00;99.90
10247;DHT22;5168;47.854;7.944;2023-03-30T17:47:03;8.80;99.90
10247;DHT22;5168;47.854;7.944;2023-03-30T17:51:56;8.70;99.90
10247;DHT22;5168;47.854;7.944;2023-03-30T17:54:22;8.40;99.90
10247;DHT22;5168;47.854;7.944;2023-03-30T17:56:48;8.60;99.90
10247;DHT22;5168;47.854;7.944;2023-03-30T18:04:05;8.90;99.90
10247;DHT22;5168;47.854;7.944;2023-03-30T18:06:31;8.60;99.90
10247;DHT22;5168;47.854;7.944;2023-03-30T18:08:57;8.80;99.90
10247;DHT22;5168;47.854;7.944;2023-03-30T18:16:14;8.40;99.90
10247;DHT22;5168;47.854;7.944;2023-03-30T18:18:42;8.30;99.90
10247;DHT22;5168;47.854;7.944;2023-03-30T18:21:08;8.50;99.90
10247;DHT22;5168;47.854;7.944;2023-03-30T18:23:34;8.80;99.90
10247;DHT22;5168;47.854;7.944;2023-03-30T18:26:00;8.50;99.90
10247;DHT22;5168;47.854;7.944;2023-03-30T18:28:27;8.50;99.90
10247;DHT22;5168;47.854;7.944;2023-03-30T18:30:54;7.90;99.90
10247;DHT22;5168;47.854;7.944;2023-03-30T18:35:48;8.50;99.90
10247;DHT22;5168;47.854;7.944;2023-03-30T18:38:17;8.60;99.90
10247;DHT22;5168;47.854;7.944;2023-03-30T18:40:47;8.40;99.90
10247;DHT22;5168;47.854;7.944;2023-03-30T18:43:14;8.20;99.90
10247;DHT22;5168;47.854;7.944;2023-03-30T18:45:43;8.90;99.90
10247;DHT22;5168;47.854;7.944;2023-03-30T18:48:13;8.50;99.90
10247;DHT22;5168;47.854;7.944;2023-03-30T18:50:40;8.40;99.90
10247;DHT22;5168;47.854;7.944;2023-03-30T18:53:09;8.70;99.90
10247;DHT22;5168;47.854;7.944;2023-03-30T18:55:37;8.80;99.90
10247;DHT22;5168;47.854;7.944;2023-03-30T18:58:03;8.60;99.90
10247;DHT22;5168;47.854;7.944;2023-03-30T19:00:33;8.70;99.90
10247;DHT22;5168;47.854;7.944;2023-03-30T19:03:00;8.70;99.90
10247;DHT22;5168;47.854;7.944;2023-03-30T19:05:28;8.70;99.90
10247;DHT22;5168;47.854;7.944;2023-03-30T19:07:54;9.30;99.90
10247;DHT22;5168;47.854;7.944;2023-03-30T19:10:23;9.20;99.90
10247;DHT22;5168;47.854;7.944;2023-03-30T19:12:55;8.40;99.90
10247;DHT22;5168;47.854;7.944;2023-03-30T19:15:22;8.80;99.90
10247;DHT22;5168;47.854;7.944;2023-03-30T19:17:48;9.10;99.90
10247;DHT22;5168;47.854;7.944;2023-03-30T19:20:15;8.50;99.90
10247;DHT22;5168;47.854;7.944;2023-03-30T19:22:41;8.80;99.90
10247;DHT22;5168;47.854;7.944;2023-03-30T19:25:09;8.50;99.90
10247;DHT22;5168;47.854;7.944;2023-03-30T19:27:35;8.60;99.90
10247;DHT22;5168;47.854;7.944;2023-03-30T19:32:27;8.90;99.90
10247;DHT22;5168;47.854;7.944;2023-03-30T19:34:52;8.50;99.90
10247;DHT22;5168;47.854;7.944;2023-03-30T19:37:20;8.90;99.90
10247;DHT22;5168;47.854;7.944;2023-03-30T19:42:12;8.60;99.90
10247;DHT22;5168;47.854;7.944;2023-03-30T19:44:38;8.30;99.90
10247;DHT22;5168;47.854;7.944;2023-03-30T19:47:04;8.40;99.90
10247;DHT22;5168;47.854;7.944;2023-03-30T19:49:29;8.80;99.90
10247;DHT22;5168;47.854;7.944;2023-03-30T19:54:21;8.70;99.90
10247;DHT22;5168;47.854;7.944;2023-03-30T19:56:47;8.90;99.90
10247;DHT22;5168;47.854;7.944;2023-03-30T19:59:12;9.20;99.90
10247;DHT22;5168;47.854;7.944;2023-03-30T20:01:38;9.00;99.90
10247;DHT22;5168;47.854;7.944;2023-03-30T20:04:04;8.50;99.90
10247;DHT22;5168;47.854;7.944;2023-03-30T20:06:30;8.60;99.90
10247;DHT22;5168;47.854;7.944;2023-03-30T20:08:56;8.00;99.90
10247;DHT22;5168;47.854;7.944;2023-03-30T20:13:48;8.50;99.90
10247;DHT22;5168;47.854;7.944;2023-03-30T20:16:16;8.50;99.90
10247;DHT22;5168;47.854;7.944;2023-03-30T20:18:49;8.30;99.90
10247;DHT22;5168;47.854;7.944;2023-03-30T20:21:23;8.40;99.90
10247;DHT22;5168;47.854;7.944;2023-03-30T20:23:49;8.10;99.90
10247;DHT22;5168;47.854;7.944;2023-03-30T20:26:15;8.20;99.90
10247;DHT22;5168;47.854;7.944;2023-03-30T20:28:44;8.00;99.90
10247;DHT22;5168;47.854;7.944;2023-03-30T20:31:10;7.80;99.90
10247;DHT22;5168;47.854;7.944;2023-03-30T20:36:03;8.10;99.90
10247;DHT22;5168;47.854;7.944;2023-03-30T20:38:28;7.90;99.90
10247;DHT22;5168;47.854;7.944;2023-03-30T20:40:59;8.20;99.90
10247;DHT22;5168;47.854;7.944;2023-03-30T20:43:26;7.70;99.90
10247;DHT22;5168;47.854;7.944;2023-03-30T20:45:53;8.20;99.90
10247;DHT22;5168;47.854;7.944;2023-03-30T20:48:29;8.20;99.90
10247;DHT22;5168;47.854;7.944;2023-03-30T20:50:59;8.40;99.90
10247;DHT22;5168;47.854;7.944;2023-03-30T20:53:28;8.40;99.90
10247;DHT22;5168;47.854;7.944;2023-03-30T20:55:55;8.20;99.90
10247;DHT22;5168;47.854;7.944;2023-03-30T20:58:22;8.40;99.90
10247;DHT22;5168;47.854;7.944;2023-03-30T21:00:49;8.40;99.90
10247;DHT22;5168;47.854;7.944;2023-03-30T21:08:08;8.30;99.90
10247;DHT22;5168;47.854;7.944;2023-03-30T21:10:33;8.20;99.90
10247;DHT22;5168;47.854;7.944;2023-03-30T21:12:59;8.80;99.90
10247;DHT22;5168;47.854;7.944;2023-03-30T21:20:17;8.70;99.90
10247;DHT22;5168;47.854;7.944;2023-03-30T21:22:42;8.70;99.90
10247;DHT22;5168;47.854;7.944;2023-03-30T21:25:08;8.70;99.90
10247;DHT22;5168;47.854;7.944;2023-03-30T21:34:51;8.70;99.90
10247;DHT22;5168;47.854;7.944;2023-03-30T21:37:17;9.00;99.90
10247;DHT22;5168;47.854;7.944;2023-03-30T21:39:43;8.50;99.90
10247;DHT22;5168;47.854;7.944;2023-03-30T21:42:09;8.70;99.90
10247;DHT22;5168;47.854;7.944;2023-03-30T21:44:35;8.80;99.90
10247;DHT22;5168;47.854;7.944;2023-03-30T21:47:01;8.70;99.90
10247;DHT22;5168;47.854;7.944;2023-03-30T21:54:18;8.80;99.90